Time;durP1;ratioP1;P1;durP2;ratioP2;P2;SDS_P1;SDS_P2;PMS_P1;PMS_P2;Temp;Humidity;BMP_temperature;BMP_pressure;BME280_temperature;BME280_humidity;BME280_pressure;Samples;Min_cycle;Max_cycle;Signal;HPM_P1;HPM_P2
2022/07/23 00:00:48;;;;;;;35.22;12.57;;;;;;;20.06;100.00;97938.97;5060325;28;20120;-64
2022/07/23 00:03:13;;;;;;;38.65;12.75;;;;;;;20.22;100.00;97914.75;5062440;28;20725;-61
2022/07/23 00:05:39;;;;;;;34.47;13.27;;;;;;;19.92;100.00;97916.25;5061036;28;20124;-61
2022/07/23 00:08:06;;;;;;;37.20;12.85;;;;;;;20.36;100.00;97905.66;5060672;28;20556;-62
2022/07/23 00:10:32;;;;;;;38.85;12.32;;;;;;;20.35;100.00;97911.94;5061051;28;20098;-63
2022/07/23 00:12:57;;;;;;;31.65;12.18;;;;;;;20.23;100.00;97911.97;5061197;28;20020;-62
2022/07/23 00:15:23;;;;;;;33.15;12.02;;;;;;;20.53;100.00;97917.50;5061300;28;20029;-63
2022/07/23 00:17:48;;;;;;;35.75;12.13;;;;;;;20.13;100.00;97919.00;5060709;28;20024;-62
2022/07/23 00:20:14;;;;;;;37.47;13.07;;;;;;;20.21;100.00;97911.25;5059489;28;20033;-63
2022/07/23 00:22:54;;;;;;;32.75;12.30;;;;;;;20.18;100.00;97908.00;5060959;28;20036;-62
2022/07/23 00:25:21;;;;;;;31.08;13.20;;;;;;;20.29;100.00;97902.69;5060044;28;20554;-62
2022/07/23 00:27:46;;;;;;;28.83;12.23;;;;;;;20.22;100.00;97890.91;5060305;28;20168;-62
2022/07/23 00:30:12;;;;;;;46.47;13.23;;;;;;;20.33;100.00;97897.97;5059488;28;20133;-62
2022/07/23 00:32:56;;;;;;;37.70;12.93;;;;;;;20.01;100.00;97890.84;5060368;28;20029;-62
2022/07/23 00:35:23;;;;;;;30.00;11.25;;;;;;;20.27;100.00;97888.72;5060424;28;20685;-66
2022/07/23 00:37:49;;;;;;;33.13;11.68;;;;;;;19.97;100.00;97907.97;5057688;28;20032;-65
2022/07/23 00:40:14;;;;;;;34.38;12.75;;;;;;;19.71;100.00;97908.22;5058398;28;20082;-65
2022/07/23 00:42:40;;;;;;;41.00;12.82;;;;;;;19.19;100.00;97901.75;5058696;28;20032;-63
2022/07/23 00:45:06;;;;;;;34.60;12.32;;;;;;;19.70;100.00;97887.16;5060355;28;20470;-62
2022/07/23 00:47:32;;;;;;;33.28;11.55;;;;;;;20.10;100.00;97871.56;5060215;28;20549;-64
2022/07/23 00:49:58;;;;;;;41.50;12.63;;;;;;;20.14;100.00;97873.00;5060052;28;20077;-65
2022/07/23 00:52:24;;;;;;;29.27;9.95;;;;;;;20.45;100.00;97867.81;5060647;28;20661;-65
2022/07/23 00:54:50;;;;;;;29.77;11.68;;;;;;;19.97;100.00;97878.84;5060372;28;20060;-64
2022/07/23 00:57:15;;;;;;;49.13;13.43;;;;;;;19.60;100.00;97864.09;5060323;28;20128;-66
2022/07/23 00:59:42;;;;;;;31.92;12.32;;;;;;;20.00;100.00;97863.56;5060753;28;20131;-62
2022/07/23 01:02:07;;;;;;;34.25;11.57;;;;;;;20.38;100.00;97863.97;5059531;28;20544;-64
2022/07/23 01:04:33;;;;;;;32.55;11.68;;;;;;;19.86;100.00;97873.59;5060882;28;20036;-62
2022/07/23 01:06:59;;;;;;;36.40;12.45;;;;;;;19.79;100.00;97874.06;5060148;28;20028;-63
2022/07/23 01:09:26;;;;;;;35.38;11.73;;;;;;;20.04;100.00;97869.44;5059911;28;20036;-64
2022/07/23 01:11:51;;;;;;;30.75;11.75;;;;;;;19.86;100.00;97890.28;5058495;28;20037;-62
2022/07/23 01:14:18;;;;;;;32.97;12.20;;;;;;;19.72;100.00;97894.03;5060365;28;20035;-62
2022/07/23 01:16:45;;;;;;;38.00;11.45;;;;;;;20.20;100.00;97871.69;5060291;28;20181;-62
2022/07/23 01:19:11;;;;;;;35.10;12.32;;;;;;;19.85;100.00;97899.22;5059963;28;20025;-62
2022/07/23 01:21:39;;;;;;;33.42;12.40;;;;;;;19.87;100.00;97893.78;5059073;28;20040;-61
2022/07/23 01:24:06;;;;;;;39.05;11.98;;;;;;;20.47;100.00;97884.41;5060238;28;20043;-62
2022/07/23 01:26:32;;;;;;;37.53;12.75;;;;;;;19.97;100.00;97894.72;5059756;28;20051;-64
2022/07/23 01:28:57;;;;;;;33.58;12.52;;;;;;;20.05;100.00;97902.03;5060713;28;20025;-66
2022/07/23 01:31:22;;;;;;;32.25;12.00;;;;;;;19.95;100.00;97900.13;5059496;28;20109;-64
2022/07/23 01:33:49;;;;;;;32.17;11.50;;;;;;;20.00;100.00;97902.44;5060685;28;20024;-64
2022/07/23 01:36:14;;;;;;;34.47;11.95;;;;;;;19.88;100.00;97903.41;5060288;28;20120;-63
2022/07/23 01:38:39;;;;;;;31.17;12.02;;;;;;;19.65;100.00;97898.13;5060304;28;20119;-65
2022/07/23 01:41:05;;;;;;;29.13;10.02;;;;;;;20.04;100.00;97898.56;5060887;28;20559;-66
2022/07/23 01:43:30;;;;;;;37.17;12.43;;;;;;;20.16;100.00;97897.56;5064110;28;20059;-64
2022/07/23 01:45:56;;;;;;;27.67;10.80;;;;;;;20.23;100.00;97897.88;5061789;28;20257;-66
2022/07/23 01:48:21;;;;;;;33.50;11.68;;;;;;;20.01;100.00;97909.38;5062215;28;20506;-65
2022/07/23 01:50:47;;;;;;;32.33;11.30;;;;;;;20.67;100.00;97900.50;5063081;28;20491;-64
2022/07/23 01:53:13;;;;;;;31.70;12.35;;;;;;;19.72;100.00;97912.56;5063942;28;20020;-64
2022/07/23 01:55:39;;;;;;;31.52;11.95;;;;;;;20.04;100.00;97914.44;5062801;28;20086;-63
2022/07/23 01:58:05;;;;;;;26.48;9.93;;;;;;;20.35;100.00;97917.25;5063751;28;20190;-65
2022/07/23 02:00:31;;;;;;;36.30;11.98;;;;;;;19.95;100.00;97925.78;5062798;28;20036;-64
2022/07/23 02:02:58;;;;;;;29.55;12.05;;;;;;;19.82;100.00;97926.75;5078951;28;20604;-63
2022/07/23 02:05:24;;;;;;;32.20;11.40;;;;;;;20.20;100.00;97930.75;5063410;28;20036;-62
2022/07/23 02:07:49;;;;;;;32.72;12.52;;;;;;;20.30;100.00;97927.38;5063107;28;20520;-61
2022/07/23 02:10:15;;;;;;;49.58;14.00;;;;;;;20.11;100.00;97943.91;5062362;28;20039;-61
2022/07/23 02:12:40;;;;;;;35.22;13.48;;;;;;;19.91;100.00;97940.22;5063490;28;20024;-61
2022/07/23 02:15:06;;;;;;;30.05;12.15;;;;;;;20.02;100.00;97935.75;5062873;28;20047;-62
2022/07/23 02:17:32;;;;;;;32.72;12.98;;;;;;;19.83;100.00;97933.75;5062930;28;20031;-61
2022/07/23 02:19:57;;;;;;;46.90;13.65;;;;;;;19.87;100.00;97933.47;5062964;28;20021;-64
2022/07/23 02:22:23;;;;;;;32.25;12.90;;;;;;;19.87;100.00;97928.19;5062926;28;20062;-61
2022/07/23 02:24:48;;;;;;;37.75;12.65;;;;;;;20.18;100.00;97923.91;5063252;28;20705;-63
2022/07/23 02:27:13;;;;;;;33.35;12.60;;;;;;;20.17;100.00;97912.47;5062896;28;20032;-65
2022/07/23 02:29:39;;;;;;;28.30;11.80;;;;;;;20.27;100.00;97911.72;5063577;28;20162;-65
2022/07/23 02:32:04;;;;;;;33.58;12.23;;;;;;;20.35;100.00;97910.13;5060877;28;20040;-65
2022/07/23 02:34:30;;;;;;;33.03;12.55;;;;;;;19.68;100.00;97924.31;5063693;28;20032;-65
2022/07/23 02:36:55;;;;;;;35.08;12.95;;;;;;;20.06;100.00;97922.25;5062349;28;20078;-64
2022/07/23 02:39:20;;;;;;;40.03;13.80;;;;;;;20.09;100.00;97919.34;5062902;28;20052;-64
2022/07/23 02:41:46;;;;;;;34.47;13.05;;;;;;;20.21;100.00;97923.66;5061522;28;20109;-63
2022/07/23 02:44:11;;;;;;;34.75;13.15;;;;;;;20.30;100.00;97914.13;5062368;28;20136;-65
2022/07/23 02:46:37;;;;;;;34.53;12.38;;;;;;;20.44;100.00;97897.94;5062925;28;20082;-63
2022/07/23 02:49:04;;;;;;;32.38;10.70;;;;;;;21.22;100.00;97895.78;5062592;28;20083;-62
2022/07/23 02:51:29;;;;;;;32.80;12.05;;;;;;;20.21;100.00;97913.88;5061531;28;20040;-61
2022/07/23 02:53:55;;;;;;;33.75;12.23;;;;;;;20.43;100.00;97912.13;5062646;28;20028;-65
2022/07/23 02:56:20;;;;;;;27.30;11.10;;;;;;;20.38;100.00;97906.38;5062257;28;20173;-62
2022/07/23 02:58:45;;;;;;;33.17;13.07;;;;;;;19.93;100.00;97911.81;5062589;28;20090;-62
2022/07/23 03:01:11;;;;;;;38.47;13.02;;;;;;;19.70;100.00;97919.75;5061407;28;20048;-62
2022/07/23 03:03:36;;;;;;;35.00;12.43;;;;;;;19.63;100.00;97915.94;5062916;28;20253;-61
2022/07/23 03:06:02;;;;;;;30.40;12.70;;;;;;;19.60;100.00;97910.88;5061942;28;20075;-62
2022/07/23 03:08:27;;;;;;;34.38;12.77;;;;;;;19.54;100.00;97916.66;5060748;28;20029;-61
2022/07/23 03:10:52;;;;;;;34.50;13.07;;;;;;;19.79;100.00;97904.97;5060982;28;20032;-62
2022/07/23 03:13:18;;;;;;;35.83;13.05;;;;;;;19.74;100.00;97915.94;5062134;28;20033;-62
2022/07/23 03:15:43;;;;;;;33.30;12.57;;;;;;;19.64;100.00;97912.31;5062249;28;20078;-62
2022/07/23 03:18:09;;;;;;;31.38;12.38;;;;;;;19.64;100.00;97910.50;5062052;28;20448;-61
2022/07/23 03:20:34;;;;;;;29.55;12.63;;;;;;;20.02;100.00;97905.78;5061322;28;20040;-64
2022/07/23 03:22:59;;;;;;;32.97;12.30;;;;;;;19.83;100.00;97920.50;5061825;28;20065;-64
2022/07/23 03:25:25;;;;;;;36.03;12.35;;;;;;;20.01;100.00;97909.38;5061622;28;20143;-61
2022/07/23 03:27:50;;;;;;;32.55;11.13;;;;;;;20.18;100.00;97910.66;5062352;28;20028;-62
2022/07/23 03:30:16;;;;;;;31.63;12.27;;;;;;;19.80;100.00;97915.44;5061182;28;20025;-62
2022/07/23 03:32:41;;;;;;;34.80;12.65;;;;;;;19.70;100.00;97916.28;5061250;28;20033;-64
2022/07/23 03:35:07;;;;;;;30.60;12.45;;;;;;;19.83;100.00;97919.66;5061807;28;20036;-62
2022/07/23 03:37:32;;;;;;;35.90;12.40;;;;;;;20.01;100.00;97909.38;5061509;28;20032;-64
2022/07/23 03:39:58;;;;;;;41.50;13.35;;;;;;;20.07;100.00;97903.63;5061686;28;20030;-62
2022/07/23 03:42:23;;;;;;;35.10;12.52;;;;;;;19.66;100.00;97915.69;5061227;28;20120;-62
2022/07/23 03:44:48;;;;;;;33.50;11.73;;;;;;;20.06;100.00;97911.69;5061491;28;20039;-61
2022/07/23 03:47:14;;;;;;;40.70;13.15;;;;;;;19.73;100.00;97910.78;5061080;28;20068;-61
2022/07/23 03:49:39;;;;;;;27.17;12.25;;;;;;;19.56;100.00;97920.03;5061375;28;20105;-61
2022/07/23 03:52:05;;;;;;;29.55;11.40;;;;;;;19.95;100.00;97915.19;5060283;28;20037;-63
2022/07/23 03:54:30;;;;;;;34.25;13.07;;;;;;;19.90;100.00;97918.19;5061633;28;20025;-62
2022/07/23 03:56:56;;;;;;;30.40;11.38;;;;;;;20.02;100.00;97919.84;5060665;28;20036;-61
2022/07/23 03:59:21;;;;;;;30.58;12.23;;;;;;;19.93;100.00;97925.06;5061760;28;20111;-61
2022/07/23 04:01:47;;;;;;;29.85;10.23;;;;;;;20.08;100.00;97926.47;5060774;28;20036;-60
2022/07/23 04:04:12;;;;;;;27.77;11.50;;;;;;;19.99;100.00;97922.75;5060630;28;20033;-62
2022/07/23 04:06:38;;;;;;;28.23;12.32;;;;;;;19.87;100.00;97930.81;5059486;28;20115;-62
2022/07/23 04:09:04;;;;;;;41.28;13.13;;;;;;;19.73;100.00;97948.66;5060988;28;20020;-61
2022/07/23 04:11:30;;;;;;;27.23;11.05;;;;;;;19.79;100.00;97929.63;5060100;28;20406;-61
2022/07/23 04:13:55;;;;;;;29.98;11.32;;;;;;;19.76;100.00;97937.84;5061283;28;20727;-62
2022/07/23 04:16:20;;;;;;;31.90;12.25;;;;;;;19.78;100.00;97929.78;5061314;28;20132;-62
2022/07/23 04:18:46;;;;;;;30.95;12.02;;;;;;;19.69;100.00;97927.84;5061083;28;20069;-61
2022/07/23 04:21:11;;;;;;;36.70;12.00;;;;;;;20.05;100.00;97928.50;5060255;28;20048;-63
2022/07/23 04:23:36;;;;;;;37.47;11.43;;;;;;;20.30;100.00;97922.06;5061257;28;20020;-61
2022/07/23 04:26:02;;;;;;;27.52;11.20;;;;;;;20.11;100.00;97926.22;5061704;28;20549;-63
2022/07/23 04:28:27;;;;;;;28.90;10.98;;;;;;;20.06;100.00;97927.56;5060977;28;20028;-62
2022/07/23 04:30:55;;;;;;;30.13;12.02;;;;;;;19.89;100.00;97926.25;5060050;28;20044;-63
2022/07/23 04:33:20;;;;;;;33.88;11.18;;;;;;;20.26;100.00;97921.47;5060472;28;20474;-62
2022/07/23 04:35:47;;;;;;;25.35;9.18;;;;;;;20.89;100.00;97907.47;5060701;28;20044;-61
2022/07/23 04:38:12;;;;;;;31.35;10.32;;;;;;;20.98;100.00;97904.88;5060320;28;20444;-61
2022/07/23 04:40:38;;;;;;;27.80;10.07;;;;;;;21.08;100.00;97909.38;5059876;28;20041;-61
2022/07/23 04:43:03;;;;;;;25.65;9.80;;;;;;;20.86;100.00;97927.13;5061053;28;20029;-64
2022/07/23 04:45:28;;;;;;;36.53;10.68;;;;;;;20.93;100.00;97909.72;5060720;28;20444;-61
2022/07/23 04:47:54;;;;;;;24.98;11.20;;;;;;;20.98;100.00;97931.38;5053491;28;20039;-61
2022/07/23 04:50:21;;;;;;;28.30;10.13;;;;;;;21.04;100.00;97939.78;5060032;28;20467;-62
2022/07/23 04:52:48;;;;;;;32.83;11.15;;;;;;;21.31;100.00;97937.44;5060817;28;20579;-62
2022/07/23 04:55:13;;;;;;;34.30;11.30;;;;;;;20.73;100.00;97942.38;5058903;28;20078;-62
2022/07/23 04:57:38;;;;;;;30.52;11.38;;;;;;;20.64;100.00;97940.50;5060575;28;20063;-61
2022/07/23 05:00:06;;;;;;;41.55;12.13;;;;;;;21.16;100.00;97930.81;5060407;28;20119;-61
2022/07/23 05:02:31;;;;;;;25.83;9.70;;;;;;;21.42;100.00;97917.94;5060092;28;20043;-62
2022/07/23 05:04:56;;;;;;;27.15;10.43;;;;;;;21.45;100.00;97917.72;5060777;28;20032;-61
2022/07/23 05:07:22;;;;;;;35.58;10.48;;;;;;;21.67;100.00;97906.06;5059988;28;20037;-62
2022/07/23 05:09:47;;;;;;;30.30;9.40;;;;;;;21.96;100.00;97894.66;5061005;28;20024;-63
2022/07/23 05:12:13;;;;;;;22.75;8.88;;;;;;;21.95;100.00;97904.44;5059817;28;20071;-62
2022/07/23 05:14:38;;;;;;;28.00;9.25;;;;;;;22.06;100.00;97900.81;5061623;28;20039;-62
2022/07/23 05:17:03;;;;;;;25.90;8.93;;;;;;;22.38;100.00;97891.78;5064208;28;20048;-61
2022/07/23 05:19:29;;;;;;;28.90;9.57;;;;;;;22.26;100.00;97903.53;5064423;28;20454;-62
2022/07/23 05:21:54;;;;;;;30.20;9.32;;;;;;;22.12;100.00;97900.25;5063603;28;20427;-64
2022/07/23 05:24:20;;;;;;;28.80;9.05;;;;;;;22.38;100.00;97893.59;5064695;28;20115;-61
2022/07/23 05:26:45;;;;;;;23.08;8.38;;;;;;;22.11;100.00;97911.88;5064424;28;20502;-64
2022/07/23 05:29:11;;;;;;;25.08;8.95;;;;;;;22.46;100.00;97907.00;5063318;28;20051;-61
2022/07/23 05:31:36;;;;;;;26.38;8.15;;;;;;;22.40;100.00;97911.06;5063150;28;20036;-62
2022/07/23 05:34:01;;;;;;;28.98;8.48;;;;;;;22.79;100.00;97912.88;5063539;28;20028;-62
2022/07/23 05:36:27;;;;;;;27.65;8.30;;;;;;;22.57;100.00;97914.00;5062693;28;20047;-63
2022/07/23 05:38:52;;;;;;;23.67;7.47;;;;;;;23.10;100.00;97905.56;5063749;28;20021;-61
2022/07/23 05:41:18;;;;;;;23.15;8.00;;;;;;;23.08;100.00;97907.53;5063462;28;21070;-61
2022/07/23 05:43:43;;;;;;;22.77;7.88;;;;;;;23.38;100.00;97902.94;5064348;28;20105;-61
2022/07/23 05:46:09;;;;;;;30.55;8.10;;;;;;;23.62;100.00;97905.94;5063353;28;20032;-61
2022/07/23 05:48:34;;;;;;;19.02;7.05;;;;;;;26.00;100.00;97892.78;5063250;28;20570;-61
2022/07/23 05:51:00;;;;;;;26.50;7.50;;;;;;;27.14;100.00;97883.94;5061932;28;20044;-64
2022/07/23 05:53:26;;;;;;;28.63;7.65;;;;;;;26.02;100.00;97888.91;5063624;28;20025;-61
2022/07/23 05:55:51;;;;;;;18.85;6.43;;;;;;;28.59;100.00;97886.28;5063022;28;20052;-61
2022/07/23 05:58:16;;;;;;;23.17;7.05;;;;;;;28.90;99.85;97898.75;5063449;28;20081;-63
2022/07/23 06:00:42;;;;;;;20.80;6.97;;;;;;;29.14;100.00;97900.41;5062285;28;20071;-64
2022/07/23 06:03:07;;;;;;;17.15;6.07;;;;;;;30.09;81.91;97894.22;5063980;28;20493;-62
2022/07/23 06:05:33;;;;;;;20.23;6.18;;;;;;;30.81;78.62;97891.63;5063149;28;20565;-61
2022/07/23 06:07:58;;;;;;;18.77;5.95;;;;;;;31.69;65.05;97903.63;5064091;28;20519;-64
2022/07/23 06:10:23;;;;;;;19.45;5.88;;;;;;;32.99;60.50;97899.97;5062960;28;20122;-63
2022/07/23 06:12:49;;;;;;;13.38;5.38;;;;;;;29.06;78.53;97903.97;5063456;28;20669;-64
2022/07/23 06:15:14;;;;;;;17.08;5.72;;;;;;;28.84;85.44;97911.88;5062801;28;20024;-63
2022/07/23 06:17:39;;;;;;;19.33;6.18;;;;;;;30.34;81.45;97926.16;5062790;28;20690;-62
2022/07/23 06:20:07;;;;;;;24.95;6.95;;;;;;;31.00;73.22;97927.81;5062810;28;20024;-62
2022/07/23 06:22:32;;;;;;;16.25;5.57;;;;;;;31.09;68.08;97923.97;5062861;28;20449;-61
2022/07/23 06:24:58;;;;;;;14.35;5.20;;;;;;;31.53;64.39;97917.44;5063383;28;20028;-63
2022/07/23 06:27:23;;;;;;;14.02;5.50;;;;;;;31.19;64.17;97920.91;5061813;28;20514;-61
2022/07/23 06:29:48;;;;;;;15.45;5.43;;;;;;;31.04;64.06;97919.13;5063270;28;20032;-62
2022/07/23 06:32:14;;;;;;;13.73;5.32;;;;;;;31.57;61.80;97921.38;5061963;28;20079;-62
2022/07/23 06:34:39;;;;;;;18.08;5.20;;;;;;;31.62;60.04;97918.09;5063199;28;20020;-64
2022/07/23 06:37:05;;;;;;;14.13;5.03;;;;;;;33.16;54.52;97917.44;5062704;28;20520;-61
2022/07/23 06:39:30;;;;;;;12.55;4.72;;;;;;;34.48;52.01;97925.31;5060574;28;20402;-61
2022/07/23 06:41:55;;;;;;;19.48;6.13;;;;;;;32.84;55.06;97929.88;5059461;28;20044;-63
2022/07/23 06:44:21;;;;;;;13.35;5.15;;;;;;;32.05;54.68;97920.56;5061823;28;20652;-63
2022/07/23 06:46:46;;;;;;;15.63;5.22;;;;;;;31.92;56.00;97924.03;5062843;28;20151;-62
2022/07/23 06:49:11;;;;;;;12.48;4.68;;;;;;;32.56;53.25;97928.19;5062240;28;20027;-62
2022/07/23 06:51:37;;;;;;;14.52;5.13;;;;;;;33.39;52.99;97929.66;5061281;28;20418;-64
2022/07/23 06:54:03;;;;;;;11.73;4.93;;;;;;;34.03;49.47;97927.19;5063660;28;20113;-64
2022/07/23 06:56:28;;;;;;;15.55;5.00;;;;;;;31.90;53.18;97928.78;5062618;28;20206;-62
2022/07/23 06:58:53;;;;;;;15.52;5.47;;;;;;;33.04;50.92;97938.81;5063143;28;20059;-62
2022/07/23 07:01:19;;;;;;;13.38;5.05;;;;;;;33.64;50.99;97931.66;5062214;28;20047;-62
2022/07/23 07:03:44;;;;;;;10.77;4.65;;;;;;;33.06;49.54;97933.22;5062666;28;20032;-64
2022/07/23 07:06:10;;;;;;;12.93;5.10;;;;;;;33.25;47.98;97936.13;5061766;28;20035;-65
2022/07/23 07:08:35;;;;;;;15.40;5.47;;;;;;;33.01;47.25;97935.69;5062601;28;20031;-62
2022/07/23 07:11:01;;;;;;;15.70;5.53;;;;;;;35.50;44.51;97943.25;5060434;28;20071;-61
2022/07/23 07:13:26;;;;;;;12.65;4.80;;;;;;;35.15;44.05;97941.06;5062337;28;20518;-64
2022/07/23 07:15:51;;;;;;;12.00;5.13;;;;;;;35.58;44.00;97939.41;5061682;28;20048;-64
2022/07/23 07:18:17;;;;;;;12.63;5.00;;;;;;;34.11;45.35;97940.47;5062989;28;20024;-62
2022/07/23 07:20:42;;;;;;;12.80;5.00;;;;;;;32.83;48.74;97945.28;5061736;28;20044;-63
2022/07/23 07:23:08;;;;;;;13.43;5.15;;;;;;;32.33;50.95;97944.75;5062773;28;20117;-62
2022/07/23 07:25:33;;;;;;;15.07;5.32;;;;;;;32.36;52.61;97947.03;5061134;28;20041;-63
2022/07/23 07:27:58;;;;;;;16.63;5.70;;;;;;;30.91;55.68;97952.19;5061622;28;20032;-65
2022/07/23 07:30:24;;;;;;;16.20;5.60;;;;;;;30.30;58.98;97949.06;5060385;28;20020;-62
2022/07/23 07:32:49;;;;;;;15.32;5.75;;;;;;;29.62;62.07;97945.72;5062452;28;20895;-67
2022/07/23 07:35:14;;;;;;;12.68;5.55;;;;;;;30.01;62.33;97960.72;5061841;28;20081;-63
2022/07/23 07:37:40;;;;;;;17.88;5.93;;;;;;;29.64;67.29;97963.31;5060527;28;20108;-65
2022/07/23 07:40:06;;;;;;;25.48;7.40;;;;;;;29.36;67.98;97969.31;5060750;28;20439;-65
2022/07/23 07:42:32;;;;;;;15.70;6.13;;;;;;;29.42;69.91;97968.56;5061733;28;20036;-62
2022/07/23 07:44:57;;;;;;;13.90;5.63;;;;;;;29.08;71.59;97970.91;5062084;28;20020;-63
2022/07/23 07:47:22;;;;;;;23.80;7.20;;;;;;;29.37;74.58;97978.22;5061237;28;20110;-61
2022/07/23 07:49:48;;;;;;;19.63;6.63;;;;;;;29.07;74.04;97974.63;5062230;28;20038;-61
2022/07/23 07:52:13;;;;;;;16.95;6.32;;;;;;;28.95;77.62;97982.25;5060877;28;20045;-61
2022/07/23 07:54:38;;;;;;;20.85;6.68;;;;;;;29.50;75.23;97996.38;5061118;28;20023;-61
2022/07/23 07:57:04;;;;;;;18.30;6.47;;;;;;;28.69;81.61;97994.19;5061282;28;20040;-62
2022/07/23 07:59:29;;;;;;;20.20;7.05;;;;;;;28.63;79.58;98011.84;5062756;28;20028;-64
2022/07/23 08:01:54;;;;;;;19.00;6.63;;;;;;;29.07;79.45;98006.84;5060024;28;20122;-63
2022/07/23 08:04:20;;;;;;;20.70;6.70;;;;;;;28.87;78.92;98006.50;5061964;28;20032;-64
2022/07/23 08:06:45;;;;;;;18.90;7.00;;;;;;;28.16;85.76;98010.06;5060758;28;20619;-63
2022/07/23 08:09:11;;;;;;;17.42;7.07;;;;;;;27.74;100.00;98024.59;5061718;28;20032;-62
2022/07/23 08:11:36;;;;;;;23.35;7.10;;;;;;;27.13;100.00;98029.53;5059350;28;20047;-65
2022/07/23 08:14:02;;;;;;;18.67;6.90;;;;;;;26.44;100.00;98039.59;5061488;28;20040;-62
2022/07/23 08:16:27;;;;;;;21.42;7.38;;;;;;;26.45;100.00;98041.25;5061065;28;20049;-62
2022/07/23 08:18:53;;;;;;;18.95;7.47;;;;;;;26.70;100.00;98039.50;5061201;28;20028;-62
2022/07/23 08:21:18;;;;;;;20.67;7.50;;;;;;;26.83;100.00;98039.03;5060679;28;20494;-60
2022/07/23 08:23:44;;;;;;;21.13;7.18;;;;;;;27.28;100.00;98037.75;5061231;28;20493;-62
2022/07/23 08:26:09;;;;;;;23.92;7.82;;;;;;;27.44;100.00;98042.22;5060377;28;20048;-64
2022/07/23 08:28:35;;;;;;;19.20;6.97;;;;;;;27.91;100.00;98036.13;5060418;28;20029;-62
2022/07/23 08:31:01;;;;;;;24.30;7.47;;;;;;;27.15;100.00;98048.06;5057347;28;20117;-63
2022/07/23 08:33:26;;;;;;;23.70;7.57;;;;;;;27.28;100.00;98038.56;5061331;28;20115;-63
2022/07/23 08:35:56;;;;;;;21.65;7.18;;;;;;;27.29;100.00;98037.59;5060881;28;20110;-64
2022/07/23 08:38:22;;;;;;;20.27;7.10;;;;;;;27.19;100.00;98049.44;5060344;28;20028;-68
2022/07/23 08:40:52;;;;;;;23.90;7.43;;;;;;;27.21;100.00;98052.78;5059644;28;20131;-62
2022/07/23 08:43:23;;;;;;;22.92;7.15;;;;;;;26.50;100.00;98044.28;5061150;28;20052;-62
2022/07/23 08:45:51;;;;;;;22.73;7.20;;;;;;;27.17;100.00;98040.72;5060609;28;20033;-65
2022/07/23 08:48:19;;;;;;;23.58;7.30;;;;;;;26.96;100.00;98043.88;5060708;28;20036;-62
2022/07/23 08:50:49;;;;;;;19.55;6.90;;;;;;;26.50;100.00;98044.28;5062379;28;20051;-65
2022/07/23 08:53:15;;;;;;;24.95;7.47;;;;;;;26.13;100.00;98053.50;5065308;28;20024;-63
2022/07/23 08:55:46;;;;;;;17.85;6.60;;;;;;;26.16;100.00;98074.56;5063964;28;20059;-65
2022/07/23 08:58:12;;;;;;;24.10;7.43;;;;;;;25.53;100.00;98089.88;5064736;28;20520;-64
2022/07/23 09:00:38;;;;;;;21.35;7.22;;;;;;;25.51;100.00;98089.19;5063661;28;20446;-65
2022/07/23 09:03:03;;;;;;;22.23;7.65;;;;;;;25.21;100.00;98101.91;5065259;28;20056;-63
2022/07/23 09:05:29;;;;;;;20.45;7.00;;;;;;;25.44;100.00;98101.47;5064293;28;20444;-62
2022/07/23 09:08:10;;;;;;;24.67;7.60;;;;;;;24.57;100.00;98118.94;5064666;28;20576;-64
2022/07/23 09:10:45;;;;;;;22.80;7.68;;;;;;;24.52;100.00;98095.41;5063477;28;20489;-64
2022/07/23 09:13:36;;;;;;;23.70;7.30;;;;;;;24.35;100.00;98101.47;5064744;28;20028;-63
2022/07/23 09:16:06;;;;;;;28.23;7.88;;;;;;;24.02;100.00;98122.34;5063504;28;20036;-63
2022/07/23 09:18:38;;;;;;;24.33;7.63;;;;;;;23.94;100.00;98132.91;5064319;28;20494;-63
2022/07/23 09:21:07;;;;;;;22.73;7.75;;;;;;;24.27;100.00;98144.03;5063257;28;20044;-61
2022/07/23 09:23:56;;;;;;;26.63;7.68;;;;;;;23.63;100.00;98159.69;5065632;28;20115;-65
2022/07/23 09:26:21;;;;;;;22.80;7.65;;;;;;;23.48;100.00;98176.09;5063847;28;20502;-62
2022/07/23 09:28:55;;;;;;;22.10;7.75;;;;;;;23.68;100.00;98182.25;5064547;28;20036;-62
2022/07/23 09:31:22;;;;;;;22.38;7.95;;;;;;;23.02;100.00;98198.00;5063443;28;20036;-62
2022/07/23 09:33:47;;;;;;;20.15;8.05;;;;;;;22.96;100.00;98201.22;5063917;28;20042;-61
2022/07/23 09:36:13;;;;;;;20.55;7.80;;;;;;;22.67;100.00;98199.31;5063730;28;20041;-65
2022/07/23 09:38:57;;;;;;;22.70;7.80;;;;;;;22.56;100.00;98197.59;5064925;28;20029;-64
2022/07/23 09:41:23;;;;;;;23.30;7.57;;;;;;;22.25;100.00;98202.03;5063337;28;20045;-64
2022/07/23 09:43:54;;;;;;;22.05;7.30;;;;;;;22.13;100.00;98194.16;5064001;28;20025;-62
2022/07/23 09:46:24;;;;;;;19.52;6.78;;;;;;;21.91;100.00;98196.94;5063822;28;20032;-63
2022/07/23 09:48:56;;;;;;;21.33;7.30;;;;;;;21.79;100.00;98211.25;5064369;28;20100;-63
2022/07/23 09:53:53;;;;;;;24.77;7.63;;;;;;;21.70;100.00;98219.00;5065439;28;19915;-64
2022/07/23 09:56:20;;;;;;;21.80;6.90;;;;;;;21.51;100.00;98203.78;5064116;28;20037;-65
2022/07/23 09:58:50;;;;;;;21.60;6.90;;;;;;;21.28;100.00;98205.63;5063502;28;20142;-62
2022/07/23 10:01:15;;;;;;;25.45;7.18;;;;;;;21.33;100.00;98206.09;5062057;28;20123;-62
2022/07/23 10:03:42;;;;;;;23.75;7.25;;;;;;;21.07;100.00;98199.44;5064061;28;20103;-61
2022/07/23 10:06:10;;;;;;;23.90;6.85;;;;;;;20.96;100.00;98213.53;5063921;28;20150;-61
2022/07/23 10:08:38;;;;;;;24.17;6.95;;;;;;;21.17;100.00;98224.22;5064216;28;20078;-65
2022/07/23 10:11:04;;;;;;;26.38;7.85;;;;;;;21.00;100.00;98225.59;5062383;28;20040;-61
2022/07/23 10:15:58;;;;;;;25.90;7.60;;;;;;;20.75;100.00;98229.34;5063110;28;20136;-61
2022/07/23 10:18:24;;;;;;;31.90;8.50;;;;;;;20.31;100.00;98228.34;5062901;28;20692;-61
2022/07/23 10:20:50;;;;;;;24.08;7.63;;;;;;;20.57;100.00;98234.28;5062551;28;20798;-61
2022/07/23 10:23:35;;;;;;;25.33;7.00;;;;;;;;;;5068107;28;20871;-62
2022/07/23 10:26:10;;;;;;;26.23;7.47;;;;;;;21.18;100.00;98239.19;5063676;28;20040;-64
2022/07/23 10:28:56;;;;;;;26.65;8.00;;;;;;;20.49;100.00;98248.09;5063798;28;20754;-63
2022/07/23 10:31:40;;;;;;;26.55;7.70;;;;;;;20.76;100.00;98244.28;5062639;28;20089;-63
2022/07/23 10:34:19;;;;;;;24.15;8.00;;;;;;;20.80;100.00;98235.13;5062827;28;20032;-62
2022/07/23 10:36:49;;;;;;;28.88;8.05;;;;;;;20.79;100.00;98241.41;5062315;28;20041;-65
2022/07/23 10:39:23;;;;;;;30.17;8.57;;;;;;;20.84;100.00;98241.03;5062414;28;20056;-61
2022/07/23 10:41:51;;;;;;;30.80;8.60;;;;;;;22.04;100.00;98205.56;5061908;28;20032;-63
2022/07/23 10:44:18;;;;;;;24.45;8.25;;;;;;;20.66;100.00;98219.47;5063378;28;20115;-64
2022/07/23 10:49:35;;;;;;;27.45;9.15;;;;;;;20.55;100.00;98249.44;5064218;28;20078;-62
2022/07/23 10:52:21;;;;;;;30.45;9.10;;;;;;;21.19;100.00;98214.31;5062357;28;20862;-61
2022/07/23 10:55:01;;;;;;;32.42;9.90;;;;;;;21.45;100.00;98195.47;5062693;28;20105;-61
2022/07/23 10:57:28;;;;;;;24.98;8.13;;;;;;;21.56;100.00;98190.13;5061235;28;20659;-62
2022/07/23 11:00:06;;;;;;;34.25;8.60;;;;;;;21.18;100.00;98192.28;5062822;28;20035;-62
2022/07/23 11:02:32;;;;;;;27.83;8.05;;;;;;;21.22;100.00;98200.00;5061992;28;20087;-61
2022/07/23 11:05:04;;;;;;;26.65;8.10;;;;;;;20.90;100.00;98208.75;5062526;28;20494;-63
2022/07/23 11:07:29;;;;;;;23.25;8.30;;;;;;;21.31;100.00;98207.19;5062564;28;20047;-61
2022/07/23 11:09:55;;;;;;;33.38;9.32;;;;;;;20.76;100.00;98207.19;5061790;28;20028;-62
2022/07/23 11:12:20;;;;;;;31.00;8.55;;;;;;;21.10;100.00;98205.31;5061328;28;20503;-63
2022/07/23 11:15:01;;;;;;;28.27;8.88;;;;;;;;;;5062414;28;20167;-61
2022/07/23 11:17:27;;;;;;;27.98;8.77;;;;;;;21.45;100.00;98208.72;5061317;28;20145;-61
2022/07/23 11:20:17;;;;;;;26.85;9.00;;;;;;;21.37;100.00;98220.78;5062353;28;20064;-63
2022/07/23 11:22:42;;;;;;;23.20;7.88;;;;;;;21.33;100.00;98222.00;5062897;28;20041;-62